createdAt,value
2018-12-17T00:01:16.667Z,94997.89
2018-12-17T00:03:52.482Z,94996.19
2018-12-17T00:06:28.103Z,95004.98
2018-12-17T00:09:03.966Z,94999.28
2018-12-17T00:11:40.481Z,94990.99
2018-12-17T00:14:16.114Z,95000.92
2018-12-17T00:16:51.922Z,95003.73
2018-12-17T00:19:27.837Z,95000.39
2018-12-17T00:22:03.764Z,95011.78
2018-12-17T00:24:39.441Z,95007.33
2018-12-17T00:27:15.316Z,95007.58
2018-12-17T00:29:51.233Z,95006.84
2018-12-17T00:32:26.948Z,95015.34
2018-12-17T00:35:02.693Z,95026.84
2018-12-17T00:37:38.437Z,95025.24
2018-12-17T00:40:14.994Z,95025.10
2018-12-17T00:42:50.656Z,95030.84
2018-12-17T00:45:26.413Z,95042.19
2018-12-17T00:48:03.169Z,95045.44
2018-12-17T00:50:38.852Z,95046.83
2018-12-17T00:53:14.388Z,95054.45
2018-12-17T00:55:50.197Z,95055.73
2018-12-17T00:58:25.956Z,95059.47
2018-12-17T01:01:01.738Z,95051.42
2018-12-17T01:03:37.595Z,95066.73
2018-12-17T01:08:54.965Z,95071.51
2018-12-17T01:11:30.829Z,95070.48
2018-12-17T01:14:06.602Z,95070.66
2018-12-17T01:16:42.393Z,95066.62
2018-12-17T01:19:18.139Z,95076.21
2018-12-17T01:21:54.249Z,95080.30
2018-12-17T01:24:29.931Z,95090.16
2018-12-17T01:27:05.718Z,95088.88
2018-12-17T01:29:41.514Z,95093.19
2018-12-17T01:32:17.192Z,95090.41
2018-12-17T01:34:52.817Z,95083.19
2018-12-17T01:37:28.727Z,95086.94
2018-12-17T01:40:04.650Z,95082.16
2018-12-17T01:42:40.442Z,95093.09
2018-12-17T01:45:16.138Z,95104.42
2018-12-17T01:47:51.805Z,95093.63
2018-12-17T01:50:27.560Z,95096.70
2018-12-17T01:53:03.269Z,95101.79
2018-12-17T01:55:39.845Z,95104.00
2018-12-17T01:58:15.570Z,95104.89
2018-12-17T02:00:51.425Z,95105.35
2018-12-17T02:03:27.217Z,95109.06
2018-12-17T02:06:02.963Z,95117.97
2018-12-17T02:08:38.813Z,95118.97
2018-12-17T02:11:14.594Z,95121.81
2018-12-17T02:13:50.616Z,95115.89
2018-12-17T02:16:26.271Z,95126.55
2018-12-17T02:19:01.957Z,95130.28
2018-12-17T02:21:37.732Z,95132.70
2018-12-17T02:24:13.588Z,95134.78
2018-12-17T02:26:49.265Z,95136.45
2018-12-17T02:29:25.060Z,95127.27
2018-12-17T02:32:00.726Z,95136.00
2018-12-17T02:34:36.359Z,95129.38
2018-12-17T02:37:12.058Z,95133.36
2018-12-17T02:39:48.002Z,95140.09
2018-12-17T02:42:23.800Z,95151.17
2018-12-17T02:44:59.602Z,95144.34
2018-12-17T02:47:35.327Z,95154.53
2018-12-17T02:50:11.558Z,95160.48
2018-12-17T02:52:47.317Z,95160.66
2018-12-17T02:55:23.265Z,95164.66
2018-12-17T02:57:58.946Z,95170.68
2018-12-17T03:00:34.749Z,95168.72
2018-12-17T03:03:10.603Z,95171.42
2018-12-17T03:05:47.331Z,95175.13
2018-12-17T03:08:23.089Z,95173.31
2018-12-17T03:11:02.641Z,95166.83
2018-12-17T03:13:38.548Z,95172.45
2018-12-17T03:16:14.484Z,95173.45
2018-12-17T03:18:54.207Z,95180.40
2018-12-17T03:21:29.953Z,95180.69
2018-12-17T03:24:06.269Z,95182.08
2018-12-17T03:26:41.970Z,95193.42
2018-12-17T03:29:17.661Z,95194.23
2018-12-17T03:31:53.700Z,95198.16
2018-12-17T03:34:29.504Z,95200.38
2018-12-17T03:37:05.303Z,95208.08
2018-12-17T03:39:41.886Z,95206.48
2018-12-17T03:42:17.730Z,95225.25
2018-12-17T03:44:55.144Z,95220.59
2018-12-17T03:47:30.881Z,95217.06
2018-12-17T03:50:08.017Z,95221.59
2018-12-17T03:52:43.651Z,95222.55
2018-12-17T03:55:19.434Z,95220.32
2018-12-17T03:57:55.111Z,95226.20
2018-12-17T04:00:30.804Z,95222.27
2018-12-17T04:03:06.501Z,95222.73
2018-12-17T04:05:42.233Z,95218.88
2018-12-17T04:08:17.974Z,95213.29
2018-12-17T04:10:53.763Z,95223.29
2018-12-17T04:13:29.424Z,95227.70
2018-12-17T04:16:05.438Z,95236.86
2018-12-17T04:18:42.258Z,95235.76
2018-12-17T04:21:18.046Z,95235.39
2018-12-17T04:23:53.877Z,95237.41
2018-12-17T04:26:29.820Z,95233.15
2018-12-17T04:29:06.971Z,95236.58
2018-12-17T04:31:44.623Z,95243.90
2018-12-17T04:34:22.262Z,95247.10
2018-12-17T04:36:57.929Z,95243.06
2018-12-17T04:39:33.627Z,95251.61
2018-12-17T04:42:09.453Z,95252.22
2018-12-17T04:44:45.229Z,95245.00
2018-12-17T04:47:21.023Z,95255.81
2018-12-17T04:49:56.839Z,95253.89
2018-12-17T04:52:32.581Z,95255.03
2018-12-17T04:55:09.851Z,95260.37
2018-12-17T04:57:45.776Z,95276.28
2018-12-17T05:00:21.496Z,95286.34
2018-12-17T05:02:57.150Z,95295.97
2018-12-17T05:05:32.943Z,95307.83
2018-12-17T05:08:08.587Z,95308.38
2018-12-17T05:10:44.331Z,95320.79
2018-12-17T05:13:20.111Z,95320.69
2018-12-17T05:15:55.934Z,95324.20
2018-12-17T05:18:31.713Z,95333.46
2018-12-17T05:21:07.573Z,95339.75
2018-12-17T05:23:43.184Z,95343.50
2018-12-17T05:26:19.001Z,95348.72
2018-12-17T05:28:54.766Z,95361.69
2018-12-17T05:31:30.601Z,95360.81
2018-12-17T05:34:06.519Z,95355.92
2018-12-17T05:36:43.404Z,95365.39
2018-12-17T05:39:19.295Z,95365.67
2018-12-17T05:41:54.902Z,95375.07
2018-12-17T05:44:30.722Z,95386.75
2018-12-17T05:47:06.480Z,95386.80
2018-12-17T05:49:42.085Z,95395.41
2018-12-17T05:52:17.768Z,95386.89
2018-12-17T05:54:55.202Z,95387.58
2018-12-17T05:57:31.024Z,95399.59
2018-12-17T06:00:08.744Z,95392.16
2018-12-17T06:02:44.459Z,95398.71
2018-12-17T06:05:20.100Z,95415.39
2018-12-17T06:07:55.989Z,95407.88
2018-12-17T06:10:31.632Z,95409.06
2018-12-17T06:13:07.408Z,95413.09
2018-12-17T06:15:43.116Z,95410.17
2018-12-17T06:18:18.680Z,95418.13
2018-12-17T06:20:54.645Z,95422.16
2018-12-17T06:23:30.271Z,95429.17
2018-12-17T06:26:06.024Z,95422.69
2018-12-17T06:28:41.696Z,95437.36
2018-12-17T06:31:17.383Z,95430.72
2018-12-17T06:33:52.960Z,95436.91
2018-12-17T06:36:28.689Z,95446.28
2018-12-17T06:39:06.596Z,95450.95
2018-12-17T06:41:42.638Z,95446.99
2018-12-17T06:44:18.300Z,95455.11
2018-12-17T06:46:53.945Z,95454.94
2018-12-17T06:49:29.452Z,95454.98
2018-12-17T06:52:05.147Z,95460.25
2018-12-17T06:54:41.016Z,95472.86
2018-12-17T06:57:16.620Z,95471.53
2018-12-17T06:59:52.276Z,95477.92
2018-12-17T07:02:28.069Z,95490.48
2018-12-17T07:05:03.861Z,95484.30
2018-12-17T07:07:39.545Z,95490.86
2018-12-17T07:10:17.453Z,95498.97
2018-12-17T07:12:53.143Z,95504.71
2018-12-17T07:15:28.707Z,95513.09
2018-12-17T07:18:04.537Z,95515.40
2018-12-17T07:20:40.156Z,95514.02
2018-12-17T07:23:16.050Z,95523.05
2018-12-17T07:25:52.288Z,95530.62
2018-12-17T07:31:11.371Z,95542.87
2018-12-17T07:33:46.943Z,95544.98
2018-12-17T07:36:22.520Z,95552.96
2018-12-17T07:38:58.291Z,95558.09
2018-12-17T07:41:33.824Z,95562.77
2018-12-17T07:44:09.568Z,95564.98
2018-12-17T07:46:45.240Z,95567.00
2018-12-17T07:49:20.976Z,95581.86
2018-12-17T07:51:56.668Z,95581.98
2018-12-17T07:54:32.306Z,95590.25
2018-12-17T07:57:07.925Z,95592.91
2018-12-17T07:59:43.764Z,95603.47
2018-12-17T08:02:19.525Z,95611.95
2018-12-17T08:04:55.195Z,95621.88
2018-12-17T08:07:30.810Z,95619.90
2018-12-17T08:10:07.121Z,95623.20
2018-12-17T08:12:42.903Z,95616.41
2018-12-17T08:15:18.539Z,95631.75
2018-12-17T08:18:10.864Z,95627.43
2018-12-17T08:20:46.491Z,95630.17
2018-12-17T08:23:22.145Z,95622.73
2018-12-17T08:25:58.169Z,95631.95
2018-12-17T08:28:33.778Z,95639.81
2018-12-17T08:31:10.117Z,95634.55
2018-12-17T08:33:45.720Z,95640.43
2018-12-17T08:36:21.317Z,95640.67
2018-12-17T08:38:56.968Z,95655.91
2018-12-17T08:41:32.553Z,95669.43
2018-12-17T08:44:08.132Z,95671.17
2018-12-17T08:46:43.772Z,95677.12
2018-12-17T08:49:19.466Z,95680.64
2018-12-17T08:51:55.080Z,95689.42
2018-12-17T08:54:30.657Z,95690.57
2018-12-17T08:57:06.467Z,95694.47
2018-12-17T08:59:42.195Z,95709.11
2018-12-17T09:02:17.740Z,95710.95
2018-12-17T09:04:53.305Z,95719.84
2018-12-17T09:07:28.901Z,95720.09
2018-12-17T09:10:05.712Z,95723.65
2018-12-17T09:12:41.338Z,95739.34
2018-12-17T09:15:16.952Z,95742.39
2018-12-17T09:17:52.906Z,95744.03
2018-12-17T09:20:28.532Z,95739.86
2018-12-17T09:23:04.259Z,95738.53
2018-12-17T09:25:39.995Z,95744.28
2018-12-17T09:30:59.945Z,95754.25
2018-12-17T09:33:35.609Z,95751.45
2018-12-17T09:36:11.231Z,95753.63
2018-12-17T09:38:46.977Z,95768.17
2018-12-17T09:41:22.868Z,95767.48
2018-12-17T09:43:58.549Z,95759.33
2018-12-17T09:46:35.230Z,95756.22
2018-12-17T09:49:10.888Z,95765.53
2018-12-17T09:51:46.496Z,95761.30
2018-12-17T09:54:22.230Z,95770.48
2018-12-17T09:57:00.612Z,95772.80
2018-12-17T09:59:36.245Z,95775.98
2018-12-17T10:02:11.904Z,95782.84
2018-12-17T10:04:47.584Z,95787.22
2018-12-17T10:07:23.172Z,95792.89
2018-12-17T10:10:00.033Z,95794.63
2018-12-17T10:12:35.925Z,95799.73
2018-12-17T10:15:11.662Z,95794.28
2018-12-17T10:17:47.262Z,95796.07
2018-12-17T10:20:22.835Z,95801.96
2018-12-17T10:22:58.357Z,95796.92
2018-12-17T10:25:34.090Z,95797.39
2018-12-17T10:28:10.324Z,95804.48
2018-12-17T10:30:45.870Z,95789.95
2018-12-17T10:33:21.518Z,95789.44
2018-12-17T10:35:57.155Z,95794.02
2018-12-17T10:38:32.772Z,95797.20
2018-12-17T10:41:08.425Z,95795.47
2018-12-17T10:43:44.095Z,95797.95
2018-12-17T10:46:19.853Z,95806.73
2018-12-17T10:48:55.629Z,95804.50
2018-12-17T10:51:31.179Z,95806.41
2018-12-17T10:54:06.899Z,95810.04
2018-12-17T10:56:42.428Z,95812.91
2018-12-17T10:59:18.088Z,95812.27
2018-12-17T11:02:05.123Z,95812.41
2018-12-17T11:04:50.487Z,95815.70
2018-12-17T11:07:26.256Z,95821.23
2018-12-17T11:12:43.471Z,95824.73
2018-12-17T11:15:19.122Z,95833.81
2018-12-17T11:17:54.847Z,95841.78
2018-12-17T11:20:30.781Z,95830.63
2018-12-17T11:23:06.344Z,95827.02
2018-12-17T11:25:41.955Z,95823.86
2018-12-17T11:28:17.580Z,95836.22
2018-12-17T11:30:53.165Z,95824.67
2018-12-17T11:33:28.800Z,95827.56
2018-12-17T11:36:04.656Z,95827.06
2018-12-17T11:38:40.296Z,95830.22
2018-12-17T11:41:15.872Z,95825.36
2018-12-17T11:43:51.929Z,95825.44
2018-12-17T11:46:27.553Z,95817.91
2018-12-17T11:51:46.555Z,95823.95
2018-12-17T11:54:22.199Z,95830.73
2018-12-17T12:01:02.747Z,95817.13
2018-12-17T12:03:42.577Z,95821.16
2018-12-17T12:06:18.483Z,95814.97
2018-12-17T12:08:54.166Z,95814.89
2018-12-17T12:11:30.048Z,95813.44
2018-12-17T12:14:05.889Z,95813.28
2018-12-17T12:16:41.544Z,95824.81
2018-12-17T12:19:17.129Z,95830.63
2018-12-17T12:21:52.760Z,95827.48
2018-12-17T12:24:28.513Z,95831.41
2018-12-17T12:27:04.409Z,95826.59
2018-12-17T12:29:40.179Z,95817.75
2018-12-17T12:32:16.104Z,95817.08
2018-12-17T12:34:52.698Z,95826.91
2018-12-17T12:37:28.341Z,95817.94
2018-12-17T12:40:04.514Z,95818.13
2018-12-17T12:42:41.829Z,95827.73
2018-12-17T12:45:17.367Z,95830.39
2018-12-17T12:47:53.057Z,95830.23
2018-12-17T12:50:28.945Z,95840.24
2018-12-17T12:53:04.848Z,95843.20
2018-12-17T12:55:40.481Z,95848.92
2018-12-17T12:58:16.083Z,95849.52
2018-12-17T13:00:51.896Z,95858.69
2018-12-17T13:03:27.568Z,95855.88
2018-12-17T13:06:03.300Z,95858.52
2018-12-17T13:08:39.135Z,95862.37
2018-12-17T13:11:14.752Z,95859.23
2018-12-17T13:13:50.480Z,95867.92
2018-12-17T13:16:26.087Z,95875.72
2018-12-17T13:21:44.879Z,95881.89
2018-12-17T13:24:20.524Z,95880.44
2018-12-17T13:26:56.324Z,95885.47
2018-12-17T13:29:31.912Z,95892.55
2018-12-17T13:32:07.582Z,95888.91
2018-12-17T13:34:45.220Z,95896.94
2018-12-17T13:37:21.008Z,95895.16
2018-12-17T13:42:43.289Z,95903.39
2018-12-17T13:45:19.706Z,95907.62
2018-12-17T13:47:55.517Z,95912.34
2018-12-17T13:50:39.614Z,95913.95
2018-12-17T13:53:20.456Z,95922.48
2018-12-17T13:55:56.486Z,95928.12
2018-12-17T13:58:32.925Z,95938.89
2018-12-17T14:01:08.796Z,95941.30
2018-12-17T14:03:44.553Z,95938.47
2018-12-17T14:06:23.839Z,95949.42
2018-12-17T14:08:59.917Z,95950.31
2018-12-17T14:11:35.901Z,95958.97
2018-12-17T14:14:11.694Z,95960.73
2018-12-17T14:16:52.418Z,95959.02
2018-12-17T14:19:28.415Z,95967.59
2018-12-17T14:22:08.573Z,95968.90
2018-12-17T14:24:44.636Z,95973.82
2018-12-17T14:27:20.558Z,95973.30
2018-12-17T14:29:56.305Z,95978.70
2018-12-17T14:32:32.113Z,95976.11
2018-12-17T14:35:08.197Z,95977.38
2018-12-17T14:37:49.111Z,95987.61
2018-12-17T14:40:24.921Z,95985.02
2018-12-17T14:43:02.767Z,95977.70
2018-12-17T14:45:38.695Z,95992.81
2018-12-17T14:48:14.716Z,96000.75
2018-12-17T14:50:50.680Z,96006.16
2018-12-17T14:53:26.457Z,96012.75
2018-12-17T14:56:02.193Z,96011.03
2018-12-17T14:58:44.175Z,96004.84
2018-12-17T15:01:15.866Z,96016.73
2018-12-17T15:03:51.771Z,96016.20
2018-12-17T15:06:27.529Z,96014.73
2018-12-17T15:09:04.000Z,96021.66
2018-12-17T15:11:39.721Z,96029.39
2018-12-17T15:14:15.473Z,96031.47
2018-12-17T15:16:51.173Z,96040.02
2018-12-17T15:19:26.929Z,96049.22
2018-12-17T15:22:02.846Z,96048.56
2018-12-17T15:24:40.507Z,96057.68
2018-12-17T15:27:16.370Z,96059.47
2018-12-17T15:29:52.123Z,96063.13
2018-12-17T15:32:27.902Z,96061.44
2018-12-17T15:35:03.810Z,96060.47
2018-12-17T15:37:39.402Z,96062.00
2018-12-17T15:40:15.252Z,96067.52
2018-12-17T15:42:50.884Z,96081.22
2018-12-17T15:45:26.656Z,96084.14
2018-12-17T15:48:02.553Z,96088.10
2018-12-17T15:50:38.297Z,96090.13
2018-12-17T15:53:14.153Z,96092.10
2018-12-17T15:55:49.987Z,96097.60
2018-12-17T15:58:27.513Z,96087.02
2018-12-17T16:01:03.403Z,96096.98
2018-12-17T16:03:39.487Z,96101.23
2018-12-17T16:06:15.384Z,96099.66
2018-12-17T16:08:51.358Z,96103.95
2018-12-17T16:11:27.236Z,96096.89
2018-12-17T16:14:03.115Z,96099.06
2018-12-17T16:16:39.105Z,96105.33
2018-12-17T16:19:14.807Z,96107.36
2018-12-17T16:21:51.115Z,96111.77
2018-12-17T16:24:26.994Z,96115.48
2018-12-17T16:27:02.880Z,96114.13
2018-12-17T16:29:38.671Z,96114.80
2018-12-17T16:32:14.488Z,96123.52
2018-12-17T16:34:50.305Z,96120.50
2018-12-17T16:37:26.056Z,96119.68
2018-12-17T16:40:01.872Z,96122.93
2018-12-17T16:42:37.591Z,96139.06
2018-12-17T16:45:15.351Z,96130.78
2018-12-17T16:47:52.149Z,96131.91
2018-12-17T16:50:28.107Z,96132.80
2018-12-17T16:53:03.894Z,96136.23
2018-12-17T16:55:39.618Z,96128.64
2018-12-17T16:58:16.900Z,96134.63
2018-12-17T17:04:05.558Z,96141.05
2018-12-17T17:06:41.298Z,96149.71
2018-12-17T17:09:16.978Z,96160.12
2018-12-17T17:11:52.737Z,96155.44
2018-12-17T17:14:28.521Z,96158.22
2018-12-17T17:17:04.432Z,96160.00
2018-12-17T17:19:40.217Z,96156.23
2018-12-17T17:24:54.336Z,96164.84
2018-12-17T17:27:30.549Z,96183.43
2018-12-17T17:30:08.410Z,96181.56
2018-12-17T17:32:44.264Z,96176.67
2018-12-17T17:35:20.130Z,96174.92
2018-12-17T17:37:55.966Z,96181.02
2018-12-17T17:40:31.689Z,96178.20
2018-12-17T17:43:07.577Z,96192.13
2018-12-17T17:45:43.307Z,96187.34
2018-12-17T17:48:19.043Z,96188.52
2018-12-17T17:50:54.781Z,96195.52
2018-12-17T17:53:30.434Z,96211.05
2018-12-17T17:56:06.942Z,96216.65
2018-12-17T17:58:42.664Z,96219.81
2018-12-17T18:01:18.726Z,96222.14
2018-12-17T18:03:54.538Z,96220.61
2018-12-17T18:06:30.280Z,96223.55
2018-12-17T18:09:09.625Z,96222.59
2018-12-17T18:11:46.608Z,96217.70
2018-12-17T18:14:23.203Z,96226.70
2018-12-17T18:16:58.926Z,96228.56
2018-12-17T18:19:34.781Z,96237.20
2018-12-17T18:22:11.025Z,96236.37
2018-12-17T18:24:46.784Z,96244.55
2018-12-17T18:27:22.558Z,96236.45
2018-12-17T18:29:58.337Z,96243.59
2018-12-17T18:32:33.904Z,96246.17
2018-12-17T18:35:10.086Z,96246.66
2018-12-17T18:37:45.789Z,96236.41
2018-12-17T18:40:21.545Z,96246.23
2018-12-17T18:42:57.318Z,96256.77
2018-12-17T18:45:33.182Z,96252.77
2018-12-17T18:48:08.993Z,96238.98
2018-12-17T18:50:44.878Z,96241.21
2018-12-17T18:53:21.786Z,96250.43
2018-12-17T18:55:57.670Z,96243.07
2018-12-17T18:58:33.275Z,96242.35
2018-12-17T19:01:10.772Z,96251.09
2018-12-17T19:03:46.335Z,96258.45
2018-12-17T19:06:22.134Z,96260.11
2018-12-17T19:08:57.924Z,96253.90
2018-12-17T19:11:34.719Z,96257.38
2018-12-17T19:14:10.431Z,96264.84
2018-12-17T19:16:46.092Z,96278.27
2018-12-17T19:19:21.716Z,96286.23
2018-12-17T19:21:57.301Z,96288.30
2018-12-17T19:24:33.108Z,96288.94
2018-12-17T19:27:09.042Z,96280.38
2018-12-17T19:29:44.846Z,96284.97
2018-12-17T19:32:20.913Z,96282.52
2018-12-17T19:34:56.437Z,96287.73
2018-12-17T19:37:32.271Z,96282.60
2018-12-17T19:43:20.716Z,96290.09
2018-12-17T19:45:56.300Z,96289.41
2018-12-17T19:48:32.080Z,96292.34
2018-12-17T19:51:21.600Z,96280.27
2018-12-17T19:53:57.253Z,96286.80
2018-12-17T19:56:33.144Z,96279.22
2018-12-17T19:59:08.783Z,96276.42
2018-12-17T20:01:45.410Z,96278.36
2018-12-17T20:04:21.045Z,96276.09
2018-12-17T20:06:56.789Z,96278.84
2018-12-17T20:09:32.476Z,96276.46
2018-12-17T20:12:08.151Z,96277.35
2018-12-17T20:14:44.978Z,96280.00
2018-12-17T20:17:20.704Z,96274.59
2018-12-17T20:19:56.471Z,96278.09
2018-12-17T20:22:32.042Z,96276.41
2018-12-17T20:25:08.204Z,96263.62
2018-12-17T20:27:43.867Z,96264.88
2018-12-17T20:33:31.347Z,96282.66
2018-12-17T20:36:07.073Z,96277.31
2018-12-17T20:38:42.941Z,96291.03
2018-12-17T20:41:18.730Z,96284.61
2018-12-17T20:43:54.458Z,96290.56
2018-12-17T20:46:30.107Z,96291.95
2018-12-17T20:49:05.919Z,96297.53
2018-12-17T20:51:41.655Z,96292.41
2018-12-17T20:54:17.555Z,96295.64
2018-12-17T20:56:53.261Z,96299.48
2018-12-17T20:59:28.972Z,96295.37
2018-12-17T21:02:04.996Z,96291.69
2018-12-17T21:04:40.755Z,96287.13
2018-12-17T21:07:16.581Z,96292.01
2018-12-17T21:09:52.398Z,96296.75
2018-12-17T21:12:28.079Z,96299.48
2018-12-17T21:15:04.322Z,96288.19
2018-12-17T21:17:39.999Z,96284.50
2018-12-17T21:20:16.032Z,96283.11
2018-12-17T21:22:51.664Z,96291.52
2018-12-17T21:25:27.448Z,96286.45
2018-12-17T21:28:03.176Z,96290.78
2018-12-17T21:30:39.959Z,96290.59
2018-12-17T21:33:15.750Z,96290.86
2018-12-17T21:35:51.584Z,96287.55
2018-12-17T21:38:27.428Z,96296.49
2018-12-17T21:41:03.084Z,96293.59
2018-12-17T21:43:38.798Z,96290.09
2018-12-17T21:46:15.375Z,96298.28
2018-12-17T21:48:51.167Z,96291.45
2018-12-17T21:51:26.711Z,96294.00
2018-12-17T21:54:02.386Z,96292.30
2018-12-17T21:56:38.422Z,96291.73
2018-12-17T21:59:14.264Z,96290.20
2018-12-17T22:01:50.031Z,96288.96
2018-12-17T22:04:25.867Z,96290.23
2018-12-17T22:07:01.551Z,96292.50
2018-12-17T22:09:37.943Z,96298.16
2018-12-17T22:12:13.953Z,96302.56
2018-12-17T22:14:49.792Z,96298.69
2018-12-17T22:17:25.654Z,96293.71
2018-12-17T22:20:01.298Z,96293.71
2018-12-17T22:22:37.007Z,96300.62
2018-12-17T22:25:12.783Z,96297.95
2018-12-17T22:27:48.552Z,96297.09
2018-12-17T22:30:24.237Z,96293.30
2018-12-17T22:33:00.359Z,96298.23
2018-12-17T22:35:36.213Z,96291.15
2018-12-17T22:38:12.708Z,96292.95
2018-12-17T22:40:48.613Z,96297.69
2018-12-17T22:43:24.421Z,96295.92
2018-12-17T22:46:00.322Z,96292.53
2018-12-17T22:48:36.105Z,96288.70
2018-12-17T22:51:11.935Z,96286.62
2018-12-17T22:53:47.813Z,96282.92
2018-12-17T22:56:23.585Z,96284.58
2018-12-17T22:58:59.566Z,96277.83
2018-12-17T23:01:35.392Z,96283.25
2018-12-17T23:04:11.054Z,96290.13
2018-12-17T23:06:47.609Z,96274.87
2018-12-17T23:09:21.547Z,96275.50
2018-12-17T23:12:13.768Z,96274.06
2018-12-17T23:15:06.327Z,96272.22
2018-12-17T23:17:41.172Z,96270.09
2018-12-17T23:20:18.613Z,96262.02
2018-12-17T23:22:54.640Z,96260.23
2018-12-17T23:25:25.606Z,96259.89
2018-12-17T23:28:01.667Z,96261.75
2018-12-17T23:30:32.711Z,96254.11
2018-12-17T23:33:03.740Z,96250.37
2018-12-17T23:35:34.531Z,96248.06
2018-12-17T23:38:05.131Z,96245.16
2018-12-17T23:40:35.789Z,96245.19
2018-12-17T23:43:11.589Z,96246.89
2018-12-17T23:45:47.359Z,96242.87
2018-12-17T23:48:18.300Z,96246.05
2018-12-17T23:50:54.471Z,96243.59
2018-12-17T23:53:30.093Z,96240.78
2018-12-17T23:56:05.940Z,96244.22
2018-12-17T23:58:41.696Z,96249.01
